Cleveland, Ohio
Traffic Map
Current Weather Conditions
Cleveland, Ohio
Clear
Clear
10°
Feels Like: 10°
Wind Chill: 10° Ceiling: Unl
Heat Index: 10° Visibility: 10mi
Dew Point: Wind: 3mph
Humidity: 68% Direction: 50° (NE)
Pressure: 30.14in Gusts: 0mph
Raw Report DataKBKL 202353Z 05003KT 10SM CLR 10/04 A3014 RMK AO2 SLP208 6//// T01000044 10222 20100 56013 PNO
Traffic Incident Summary
Active as of:
Severity:
Category:
InformationThere was an issue retrieving the traffic information for this location. Please try a different location or try again shortly.
Advertisements
At Last! Intellicast now available for iPhone and Android